الصفحة الرئيسية
METAR-TAF:

METAR-TAF

مطار :

ناساو, البهاما

دائرة عرض: 25-03N, خط طول: 077-28W, ارتفاع: 3 متر

مراقبة الطقس الحالي

تاريخ ووقت الإصدار 43 دقيقة قبل الساعة 11:00UTC
ريح 6 عقدة من الشرق/الجنوب الشرقي
درجة الحرارة 25°درجة مئوية
الرطوبة 83%
ضغط 1018 hPa
الرؤية 10 كم أو أكثر
غيوم متفرقة على ارتفاع 1600 قدم
غيوم متفرقة على ارتفاع 4000 قدم
غيوم مفككة على ارتفاع 22000 قدم

METAR: MYNN 241100Z 12006KT 9999 SCT016 SCT040 BKN220 25/22 A3007

زمن: 07:43 (11:43 UTC)

توقعات

تاريخ ووقت الإصدار 2ساعات و 13 دقيقة قبل الساعة 09:30UTC
التوقعات صالحة من24 الساعة 12 UTC إلى 25 الساعة 12 UTC
ريح 10 عقدة من الشرق/الجنوب الشرقي
الرؤية 10 كم أو أكثر
غيوم متفرقة على ارتفاع 2000 قدم
غيوم مفككة على ارتفاع 12000 قدم
نظرية الاحتمالات 30% :
مؤقت
من 24 الساعة 15 UTC إلى 24 الساعة 18 UTC
غيوم مفككة على ارتفاع 1800 قدم
زخات في الجوار

TAF: MYNN 240930Z 2412/2512 12010KT 9999 SCT020 BKN120 PROB30 TEMPO 2415/2418 VCSH BKN018

أرصاد الطقس والتوقعات من أكثر من 4000 مطار (تقارير الطقس للمطار METAR والتنبؤ بالطقس بالمطارTAF).

المحطات المتاحة هي النقط الصفراء والحمراء على الخريطة.

حرك المؤشر فوق النقطة لمعرفة اسم المحطة.

ثم انقر لمعرفة أرصاد وتوقعات الطقس.

لتغيير الخارطة: اضغط على الأزرار الخضراء مع رمز الصليب الأسود للتكبير. على الزر الأخضر مع شرطة للتصغير، أو على الأسهم الخضراء للخرائط المجاورة.


METAR-TAF: